Time;durP1;ratioP1;P1;durP2;ratioP2;P2;SDS_P1;SDS_P2;PMS_P1;PMS_P2;Temp;Humidity;BMP_temperature;BMP_pressure;BME280_temperature;BME280_humidity;BME280_pressure;Samples;Min_cycle;Max_cycle;Signal;HPM_P1;HPM_P2
2022/01/07 00:00:15;;;;;;;14.80;7.13;;;0.50;70.40;;;;;;5095964;28;20020;-21
2022/01/07 00:02:45;;;;;;;16.00;7.28;;;0.50;70.40;;;;;;5095897;28;20036;-20
2022/01/07 00:05:12;;;;;;;20.23;8.05;;;0.40;70.40;;;;;;5096090;28;20093;-20
2022/01/07 00:07:39;;;;;;;16.70;7.45;;;0.40;70.40;;;;;;5096003;28;20028;-20
2022/01/07 00:10:06;;;;;;;13.20;6.57;;;0.40;70.60;;;;;;5095775;28;20445;-20
2022/01/07 00:12:32;;;;;;;11.15;5.43;;;0.30;70.60;;;;;;5095523;28;20050;-20
2022/01/07 00:14:58;;;;;;;9.85;5.40;;;0.30;70.60;;;;;;5095698;28;20486;-20
2022/01/07 00:17:24;;;;;;;14.15;6.43;;;0.30;70.60;;;;;;5095971;28;20024;-20
2022/01/07 00:19:50;;;;;;;11.32;5.80;;;0.20;70.90;;;;;;5095807;28;20388;-20
2022/01/07 00:22:16;;;;;;;26.77;13.05;;;0.20;71.00;;;;;;5095496;28;20020;-21
2022/01/07 00:24:43;;;;;;;16.67;9.10;;;0.30;71.30;;;;;;5095315;28;20548;-20
2022/01/07 00:27:09;;;;;;;15.00;8.18;;;0.30;71.20;;;;;;5095797;28;20035;-20
2022/01/07 00:29:35;;;;;;;13.93;6.72;;;0.30;71.20;;;;;;5095678;28;20028;-20
2022/01/07 00:32:01;;;;;;;10.75;4.93;;;0.30;71.20;;;;;;5095233;28;20028;-20
2022/01/07 00:34:27;;;;;;;13.18;6.40;;;0.40;71.00;;;;;;5094867;28;20419;-21
2022/01/07 00:36:53;;;;;;;16.77;7.88;;;0.40;71.00;;;;;;5094472;28;20024;-20
2022/01/07 00:39:20;;;;;;;13.82;7.55;;;0.40;70.90;;;;;;5095218;28;20028;-20
2022/01/07 00:41:46;;;;;;;34.45;17.55;;;0.40;71.20;;;;;;5095483;28;20106;-20
2022/01/07 00:44:12;;;;;;;27.05;15.55;;;0.40;71.50;;;;;;5095383;28;20173;-20
2022/01/07 00:46:38;;;;;;;25.27;13.57;;;0.40;72.10;;;;;;5095075;28;20032;-20
2022/01/07 00:49:04;;;;;;;23.95;11.77;;;0.40;72.00;;;;;;5095764;28;20117;-20
2022/01/07 00:51:31;;;;;;;11.48;6.82;;;0.30;71.60;;;;;;5094030;28;20028;-20
2022/01/07 00:53:57;;;;;;;10.10;5.82;;;0.30;71.60;;;;;;5094972;28;20379;-20
2022/01/07 00:56:23;;;;;;;17.52;9.52;;;0.30;71.50;;;;;;5094837;28;20480;-20
2022/01/07 00:58:49;;;;;;;15.98;7.75;;;0.30;72.00;;;;;;5095000;28;20027;-20
2022/01/07 01:01:15;;;;;;;15.25;8.40;;;0.30;72.50;;;;;;5095432;28;20371;-20
2022/01/07 01:03:41;;;;;;;12.77;6.60;;;0.30;72.60;;;;;;5094985;28;20483;-20
2022/01/07 01:06:07;;;;;;;10.05;5.82;;;0.30;72.30;;;;;;5094702;28;20040;-20
2022/01/07 01:08:33;;;;;;;11.18;4.95;;;0.30;72.30;;;;;;5094779;28;20036;-20
2022/01/07 01:10:59;;;;;;;9.40;5.05;;;0.30;72.30;;;;;;5094945;28;20430;-20
2022/01/07 01:13:26;;;;;;;8.65;4.95;;;0.30;71.90;;;;;;5093331;28;20035;-20
2022/01/07 01:15:52;;;;;;;16.25;7.88;;;0.30;71.90;;;;;;5094472;28;20072;-20
2022/01/07 01:18:18;;;;;;;12.30;5.55;;;0.30;72.20;;;;;;5092922;28;20488;-20
2022/01/07 01:20:44;;;;;;;11.88;6.57;;;0.40;72.00;;;;;;5094421;28;20024;-19
2022/01/07 01:23:10;;;;;;;13.05;8.07;;;0.40;72.00;;;;;;5094338;28;20047;-20
2022/01/07 01:25:37;;;;;;;16.60;9.82;;;0.50;72.60;;;;;;5094266;28;20032;-20
2022/01/07 01:28:04;;;;;;;15.18;6.68;;;0.50;72.90;;;;;;5094803;28;20519;-20
2022/01/07 01:30:32;;;;;;;18.35;10.02;;;0.60;73.30;;;;;;5094072;28;20430;-20
2022/01/07 01:32:59;;;;;;;15.60;8.82;;;0.60;73.70;;;;;;5094456;28;20028;-20
2022/01/07 01:35:26;;;;;;;14.35;8.10;;;0.60;73.40;;;;;;5094119;28;20034;-20
2022/01/07 01:37:52;;;;;;;10.93;4.53;;;0.60;73.20;;;;;;5094318;28;20069;-20
2022/01/07 01:40:19;;;;;;;6.32;3.33;;;0.60;72.60;;;;;;5094167;28;20107;-20
2022/01/07 01:42:47;;;;;;;11.68;6.00;;;0.60;71.80;;;;;;5092738;28;20031;-20
2022/01/07 01:45:15;;;;;;;8.38;3.90;;;0.60;71.90;;;;;;5093077;28;20085;-20
2022/01/07 01:47:42;;;;;;;6.70;3.80;;;0.60;71.60;;;;;;5094210;28;20065;-20
2022/01/07 01:50:10;;;;;;;4.50;2.92;;;0.60;71.60;;;;;;5094013;28;20023;-19
2022/01/07 01:52:37;;;;;;;5.63;2.97;;;0.60;71.50;;;;;;5093927;28;20027;-19
2022/01/07 01:55:04;;;;;;;6.00;2.97;;;0.60;71.50;;;;;;5093829;28;20020;-19
2022/01/07 01:57:31;;;;;;;6.68;3.80;;;0.50;71.50;;;;;;5093695;28;20557;-20
2022/01/07 02:00:00;;;;;;;8.40;4.20;;;0.50;71.50;;;;;;5093850;28;20034;-20
2022/01/07 02:02:26;;;;;;;10.15;5.65;;;0.50;71.60;;;;;;5093424;28;20024;-20
2022/01/07 02:04:51;;;;;;;9.55;5.18;;;0.40;72.10;;;;;;5093759;28;20035;-20
2022/01/07 02:07:17;;;;;;;10.07;4.43;;;0.40;72.10;;;;;;5093907;28;20380;-20
2022/01/07 02:09:43;;;;;;;5.13;3.10;;;0.40;72.00;;;;;;5093843;28;20068;-20
2022/01/07 02:12:09;;;;;;;5.72;2.80;;;0.30;71.80;;;;;;5093654;28;20414;-20
2022/01/07 02:14:37;;;;;;;7.68;4.30;;;0.30;71.70;;;;;;5093245;28;20039;-20
2022/01/07 02:17:08;;;;;;;9.00;4.75;;;0.30;71.70;;;;;;5093701;28;20028;-20
2022/01/07 02:19:36;;;;;;;13.10;6.40;;;0.20;72.10;;;;;;5093399;28;20020;-20
2022/01/07 02:22:02;;;;;;;8.57;5.00;;;0.30;72.20;;;;;;5093879;28;20035;-20
2022/01/07 02:24:29;;;;;;;8.13;5.10;;;0.20;72.80;;;;;;5093002;28;20511;-20
2022/01/07 02:26:56;;;;;;;9.82;5.13;;;0.30;73.00;;;;;;5092465;28;20050;-20
2022/01/07 02:29:22;;;;;;;9.98;5.60;;;0.30;72.50;;;;;;5093246;28;20032;-19
2022/01/07 02:31:49;;;;;;;9.88;5.57;;;0.30;72.60;;;;;;5092045;28;20476;-20
2022/01/07 02:34:15;;;;;;;9.13;5.03;;;0.40;72.70;;;;;;5091746;28;20012;-20
2022/01/07 02:36:42;;;;;;;9.43;4.82;;;0.40;72.50;;;;;;5093263;28;20353;-19
2022/01/07 02:39:08;;;;;;;9.38;5.32;;;0.40;72.30;;;;;;5093509;28;20103;-20
2022/01/07 02:41:34;;;;;;;11.30;5.90;;;0.40;72.20;;;;;;5093241;28;20434;-20
2022/01/07 02:44:00;;;;;;;9.63;5.63;;;0.40;72.20;;;;;;5093339;28;20071;-20
2022/01/07 02:46:26;;;;;;;7.90;4.32;;;0.40;72.30;;;;;;5093191;28;20017;-20
2022/01/07 02:48:52;;;;;;;10.95;5.90;;;0.40;72.30;;;;;;5093329;28;20040;-20
2022/01/07 02:51:19;;;;;;;12.35;7.28;;;0.40;72.60;;;;;;5093084;28;20037;-20
2022/01/07 02:53:45;;;;;;;8.07;4.55;;;0.40;72.50;;;;;;5093364;28;20035;-20
2022/01/07 02:56:11;;;;;;;10.18;4.40;;;0.30;72.50;;;;;;5094386;28;20032;-20
2022/01/07 02:58:38;;;;;;;7.38;3.83;;;0.30;72.30;;;;;;5097290;28;20027;-19
2022/01/07 03:01:04;;;;;;;5.63;3.17;;;0.30;72.10;;;;;;5097419;28;20154;-19
2022/01/07 03:03:30;;;;;;;6.38;3.40;;;0.30;71.80;;;;;;5097210;28;20024;-19
2022/01/07 03:05:56;;;;;;;5.78;3.55;;;0.30;71.80;;;;;;5097241;28;20430;-19
2022/01/07 03:08:22;;;;;;;7.32;3.70;;;0.30;71.90;;;;;;5095892;28;20055;-20
2022/01/07 03:10:48;;;;;;;6.47;3.15;;;0.30;71.80;;;;;;5096937;28;20032;-19
2022/01/07 03:13:14;;;;;;;5.00;2.70;;;0.30;71.60;;;;;;5097255;28;20024;-19
2022/01/07 03:15:40;;;;;;;7.10;3.47;;;0.30;71.60;;;;;;5096925;28;20028;-19
2022/01/07 03:18:08;;;;;;;8.25;3.17;;;0.30;71.80;;;;;;5097011;28;20040;-19
2022/01/07 03:20:38;;;;;;;7.03;3.25;;;0.30;71.90;;;;;;5097266;28;20032;-19
2022/01/07 03:23:07;;;;;;;4.70;2.50;;;0.20;71.70;;;;;;5096859;28;20052;-19
2022/01/07 03:25:33;;;;;;;3.92;2.10;;;0.20;71.90;;;;;;5096552;28;20020;-19
2022/01/07 03:27:59;;;;;;;4.43;2.95;;;0.30;71.80;;;;;;5096861;28;20068;-19
2022/01/07 03:30:25;;;;;;;5.22;3.17;;;0.30;71.80;;;;;;5096691;28;20464;-19
2022/01/07 03:32:50;;;;;;;3.35;2.30;;;0.30;71.90;;;;;;5096405;28;20093;-19
2022/01/07 03:35:17;;;;;;;6.55;3.15;;;0.40;71.90;;;;;;5096790;28;20024;-19
2022/01/07 03:37:44;;;;;;;3.67;2.35;;;0.40;71.90;;;;;;5096377;28;20039;-19
2022/01/07 03:40:12;;;;;;;4.18;2.67;;;0.40;71.70;;;;;;5096410;28;20086;-19
2022/01/07 03:42:39;;;;;;;5.90;3.25;;;0.50;71.60;;;;;;5096640;28;20031;-19
2022/01/07 03:45:07;;;;;;;8.77;4.22;;;0.60;71.60;;;;;;5096539;28;20085;-19
2022/01/07 03:47:33;;;;;;;6.72;3.72;;;0.60;72.10;;;;;;5096524;28;20028;-19
2022/01/07 03:49:59;;;;;;;6.00;3.83;;;0.70;71.90;;;;;;5096386;28;20052;-19
2022/01/07 03:52:25;;;;;;;5.13;3.05;;;0.70;71.80;;;;;;5094740;28;20024;-19
2022/01/07 03:54:51;;;;;;;7.43;4.20;;;0.80;71.50;;;;;;5096423;28;20035;-19
2022/01/07 03:57:18;;;;;;;9.73;4.32;;;0.90;71.90;;;;;;5096706;28;20106;-19
2022/01/07 03:59:44;;;;;;;18.00;9.05;;;0.90;71.70;;;;;;5096630;28;20099;-19
2022/01/07 04:02:11;;;;;;;12.77;6.63;;;0.90;71.70;;;;;;5095966;28;20106;-19
2022/01/07 04:04:37;;;;;;;11.02;5.85;;;1.00;71.60;;;;;;5095609;28;20030;-19
2022/01/07 04:07:03;;;;;;;10.40;5.53;;;1.00;71.30;;;;;;5095838;28;20035;-19
2022/01/07 04:09:29;;;;;;;9.18;5.55;;;1.10;71.30;;;;;;5095701;28;20073;-19
2022/01/07 04:11:58;;;;;;;12.38;6.18;;;1.10;71.20;;;;;;5096242;28;20036;-19
2022/01/07 04:14:24;;;;;;;10.93;5.70;;;1.10;71.10;;;;;;5095631;28;20035;-19
2022/01/07 04:16:50;;;;;;;10.82;5.82;;;1.20;71.20;;;;;;5096004;28;20028;-19
2022/01/07 04:19:16;;;;;;;10.48;5.28;;;1.20;70.90;;;;;;5095711;28;20491;-19
2022/01/07 04:21:42;;;;;;;11.13;5.35;;;1.20;71.00;;;;;;5095609;28;20063;-19
2022/01/07 04:24:08;;;;;;;11.40;5.60;;;1.20;71.00;;;;;;5095253;28;20123;-19
2022/01/07 04:26:34;;;;;;;11.00;4.95;;;1.20;71.00;;;;;;5094111;28;20066;-19
2022/01/07 04:29:00;;;;;;;9.45;3.95;;;1.30;70.90;;;;;;5095454;28;20059;-19
2022/01/07 04:31:26;;;;;;;9.30;3.80;;;1.30;70.80;;;;;;5095348;28;20024;-19
2022/01/07 04:33:52;;;;;;;6.28;3.40;;;1.30;70.70;;;;;;5095249;28;20032;-19
2022/01/07 04:36:17;;;;;;;4.47;2.80;;;1.40;70.60;;;;;;5095396;28;20031;-20
2022/01/07 04:38:45;;;;;;;3.55;2.28;;;1.40;70.50;;;;;;5094055;28;20058;-19
2022/01/07 04:41:11;;;;;;;5.68;2.92;;;1.50;70.20;;;;;;5095221;28;20038;-20
2022/01/07 04:43:36;;;;;;;3.65;2.42;;;1.50;70.10;;;;;;5095414;28;20028;-20
2022/01/07 04:46:04;;;;;;;6.07;2.20;;;1.60;69.90;;;;;;5095238;28;20028;-19
2022/01/07 04:48:30;;;;;;;4.18;2.38;;;1.60;69.80;;;;;;5094854;28;20047;-20
2022/01/07 04:50:56;;;;;;;4.18;2.08;;;1.70;69.70;;;;;;5095321;28;20031;-20
2022/01/07 04:53:22;;;;;;;4.55;2.55;;;1.70;69.60;;;;;;5095482;28;20020;-19
2022/01/07 04:55:49;;;;;;;5.15;2.70;;;1.70;69.50;;;;;;5093641;28;20096;-20
2022/01/07 04:58:15;;;;;;;4.70;3.03;;;1.70;69.40;;;;;;5094997;28;20016;-20
2022/01/07 05:00:43;;;;;;;4.47;2.50;;;1.60;69.40;;;;;;5095161;28;20031;-20
2022/01/07 05:03:10;;;;;;;5.43;3.58;;;1.60;69.40;;;;;;5095428;28;20020;-20
2022/01/07 05:05:36;;;;;;;5.63;3.90;;;1.60;69.50;;;;;;5094618;28;20123;-20
2022/01/07 05:08:03;;;;;;;7.38;4.18;;;1.50;69.70;;;;;;5095147;28;20047;-20
2022/01/07 05:10:29;;;;;;;7.57;4.25;;;1.50;69.90;;;;;;5093176;28;20439;-20
2022/01/07 05:12:55;;;;;;;9.40;4.78;;;1.40;70.30;;;;;;5094522;28;20053;-20
2022/01/07 05:15:23;;;;;;;7.38;4.32;;;1.40;70.50;;;;;;5094895;28;20048;-20
2022/01/07 05:17:49;;;;;;;8.98;5.13;;;1.30;70.90;;;;;;5094517;28;20028;-20
2022/01/07 05:20:16;;;;;;;8.05;4.35;;;1.30;71.40;;;;;;5094452;28;20028;-20
2022/01/07 05:22:43;;;;;;;8.98;5.53;;;1.20;71.30;;;;;;5092935;28;20056;-19
2022/01/07 05:25:11;;;;;;;8.55;4.93;;;1.20;71.80;;;;;;5094301;28;20039;-19
2022/01/07 05:27:37;;;;;;;6.28;3.90;;;1.20;71.80;;;;;;5094923;28;20519;-20
2022/01/07 05:30:09;;;;;;;7.93;4.50;;;1.20;71.70;;;;;;5094249;28;20118;-20
2022/01/07 05:32:35;;;;;;;9.75;5.00;;;1.10;71.60;;;;;;5094011;28;20414;-20
2022/01/07 05:35:01;;;;;;;7.47;4.07;;;1.10;71.60;;;;;;5094366;28;20039;-19
2022/01/07 05:37:27;;;;;;;6.97;3.90;;;1.10;71.80;;;;;;5094353;28;20027;-20
2022/01/07 05:39:56;;;;;;;7.57;4.28;;;1.10;71.70;;;;;;5094100;28;20020;-20
2022/01/07 05:42:21;;;;;;;8.88;4.38;;;1.10;71.80;;;;;;5094115;28;20229;-20
2022/01/07 05:44:47;;;;;;;7.43;2.90;;;1.10;71.70;;;;;;5094214;28;20475;-20
2022/01/07 05:47:13;;;;;;;7.68;3.97;;;1.10;71.60;;;;;;5092735;28;20486;-20
2022/01/07 05:49:39;;;;;;;6.68;3.78;;;1.10;71.50;;;;;;5093877;28;20020;-20
2022/01/07 05:52:05;;;;;;;5.53;3.53;;;1.10;71.30;;;;;;5093888;28;20028;-19
2022/01/07 05:54:31;;;;;;;6.20;3.63;;;1.10;71.20;;;;;;5093745;28;20013;-20
2022/01/07 05:56:58;;;;;;;5.72;2.88;;;1.20;71.10;;;;;;5094394;28;20020;-20
2022/01/07 05:59:24;;;;;;;4.60;2.65;;;1.20;70.80;;;;;;5094049;28;20058;-20
2022/01/07 06:01:50;;;;;;;4.30;2.80;;;1.20;70.80;;;;;;5094305;28;20449;-20
2022/01/07 06:04:16;;;;;;;6.45;2.80;;;1.10;70.70;;;;;;5093275;28;20067;-20
2022/01/07 06:06:42;;;;;;;3.88;2.50;;;1.20;70.70;;;;;;5093658;28;20066;-19
2022/01/07 06:09:08;;;;;;;4.32;2.80;;;1.10;70.60;;;;;;5093917;28;20032;-20
2022/01/07 06:11:34;;;;;;;4.43;2.53;;;1.10;70.50;;;;;;5093730;28;20434;-20
2022/01/07 06:14:00;;;;;;;5.22;3.15;;;1.10;70.50;;;;;;5092258;28;20020;-19
2022/01/07 06:16:26;;;;;;;7.05;3.58;;;1.10;70.50;;;;;;5093383;28;20027;-20
2022/01/07 06:18:53;;;;;;;5.25;2.90;;;1.00;70.40;;;;;;5093671;28;20035;-19
2022/01/07 06:21:20;;;;;;;4.05;2.60;;;1.00;70.40;;;;;;5093865;28;20087;-20
2022/01/07 06:23:46;;;;;;;4.90;2.72;;;1.00;70.40;;;;;;5093335;28;20056;-20
2022/01/07 06:26:12;;;;;;;4.75;2.92;;;0.90;70.40;;;;;;5093655;28;20032;-19
2022/01/07 06:28:39;;;;;;;5.95;2.72;;;0.90;70.40;;;;;;5093645;28;20032;-19
2022/01/07 06:31:05;;;;;;;5.10;3.00;;;0.90;70.50;;;;;;5093098;28;20054;-19
2022/01/07 06:33:31;;;;;;;6.22;2.97;;;0.80;70.50;;;;;;5093503;28;20024;-19
2022/01/07 06:35:57;;;;;;;3.60;2.67;;;0.70;70.50;;;;;;5092059;28;20561;-19
2022/01/07 06:38:23;;;;;;;4.47;2.00;;;0.70;70.50;;;;;;5093010;28;20028;-19
2022/01/07 06:40:48;;;;;;;4.53;2.53;;;0.60;70.60;;;;;;5093508;28;20028;-19
2022/01/07 06:43:14;;;;;;;3.88;2.58;;;0.60;70.60;;;;;;5093175;28;20122;-19
2022/01/07 06:45:40;;;;;;;3.20;2.00;;;0.50;70.60;;;;;;5093141;28;20028;-19
2022/01/07 06:48:06;;;;;;;4.65;2.15;;;0.50;70.70;;;;;;5093029;28;20071;-20
2022/01/07 06:50:32;;;;;;;6.03;3.50;;;0.50;70.70;;;;;;5092921;28;20039;-20
2022/01/07 06:52:58;;;;;;;4.70;2.88;;;0.40;70.70;;;;;;5092974;28;20418;-20
2022/01/07 06:55:24;;;;;;;5.50;3.38;;;0.40;70.70;;;;;;5093434;28;20051;-20
2022/01/07 06:57:50;;;;;;;3.53;2.13;;;0.30;70.70;;;;;;5093102;28;20480;-20
2022/01/07 07:00:17;;;;;;;4.15;1.92;;;0.30;70.80;;;;;;5093032;28;20032;-20
2022/01/07 07:02:42;;;;;;;3.25;2.15;;;0.30;70.80;;;;;;5093333;28;20100;-19
2022/01/07 07:05:09;;;;;;;3.75;1.77;;;0.30;70.80;;;;;;5092801;28;20539;-20
2022/01/07 07:07:35;;;;;;;6.88;3.63;;;0.20;70.90;;;;;;5091748;28;20024;-19
2022/01/07 07:10:02;;;;;;;5.63;3.22;;;0.20;70.70;;;;;;5092944;28;20480;-19
2022/01/07 07:12:28;;;;;;;6.68;3.83;;;0.20;70.80;;;;;;5093027;28;20032;-19
2022/01/07 07:14:54;;;;;;;6.68;3.95;;;0.20;70.90;;;;;;5093145;28;20089;-19
2022/01/07 07:17:20;;;;;;;8.30;4.70;;;0.20;70.80;;;;;;5093112;28;20472;-19
2022/01/07 07:19:47;;;;;;;5.57;3.60;;;0.20;70.90;;;;;;5092714;28;20028;-19
2022/01/07 07:22:14;;;;;;;7.00;3.38;;;0.20;71.00;;;;;;5092907;28;20031;-21
2022/01/07 07:24:40;;;;;;;3.00;1.90;;;0.20;70.90;;;;;;5091337;28;20055;-19
2022/01/07 07:27:06;;;;;;;3.10;1.88;;;0.30;71.00;;;;;;5093115;28;20380;-19
2022/01/07 07:29:32;;;;;;;6.03;3.58;;;0.40;70.80;;;;;;5092758;28;20456;-20
2022/01/07 07:31:59;;;;;;;5.13;3.00;;;0.40;70.40;;;;;;5093047;28;20024;-20
2022/01/07 07:34:44;;;;;;;4.80;2.22;;;0.60;70.50;;;;;;5092681;28;20036;-19
2022/01/07 07:37:13;;;;;;;9.02;4.03;;;0.70;70.60;;;;;;5093041;28;20016;-19
2022/01/07 07:39:40;;;;;;;6.38;3.08;;;0.80;70.20;;;;;;5092973;28;20028;-20
2022/01/07 07:42:06;;;;;;;5.78;3.00;;;0.90;69.20;;;;;;5092980;28;20055;-20
2022/01/07 07:44:32;;;;;;;5.90;2.92;;;1.00;69.20;;;;;;5095041;28;20083;-19
2022/01/07 07:46:58;;;;;;;3.97;2.60;;;1.10;68.90;;;;;;5096651;28;20020;-20
2022/01/07 07:49:25;;;;;;;7.90;4.07;;;1.20;68.70;;;;;;5096487;28;20040;-20
2022/01/07 07:51:52;;;;;;;6.43;3.22;;;1.20;68.10;;;;;;5096360;28;20032;-20
2022/01/07 07:54:18;;;;;;;8.25;3.85;;;1.30;67.90;;;;;;5096286;28;20035;-19
2022/01/07 07:56:44;;;;;;;6.82;2.95;;;1.40;67.40;;;;;;5096454;28;20110;-19
2022/01/07 07:59:10;;;;;;;8.30;4.13;;;1.40;67.30;;;;;;5096091;28;20146;-20
2022/01/07 08:01:37;;;;;;;8.23;4.38;;;1.50;66.90;;;;;;5095022;28;20040;-20
2022/01/07 08:04:04;;;;;;;7.20;4.07;;;1.60;67.00;;;;;;5095793;28;20064;-19
2022/01/07 08:06:30;;;;;;;9.10;3.65;;;1.60;66.70;;;;;;5095681;28;20039;-20
2022/01/07 08:08:56;;;;;;;8.07;3.58;;;1.70;66.80;;;;;;5096189;28;20035;-20
2022/01/07 08:11:26;;;;;;;7.00;3.78;;;1.70;66.80;;;;;;5096133;28;20037;-20
2022/01/07 08:16:54;;;;;;;6.88;3.30;;;1.90;66.40;;;;;;5073415;28;20091;-20
2022/01/07 08:19:20;;;;;;;5.80;2.95;;;2.00;65.80;;;;;;5091019;28;20028;-20
2022/01/07 08:21:46;;;;;;;7.25;3.10;;;2.10;64.70;;;;;;5095733;28;20024;-20
2022/01/07 08:24:12;;;;;;;5.05;2.63;;;2.20;65.20;;;;;;5095495;28;20051;-20
2022/01/07 08:26:38;;;;;;;5.03;3.00;;;2.40;64.50;;;;;;5095913;28;20446;-20
2022/01/07 08:29:07;;;;;;;4.50;2.28;;;2.40;64.20;;;;;;5095478;28;20059;-19
2022/01/07 08:36:45;;;;;;;5.03;2.80;;;2.90;63.60;;;;;;5095905;28;20171;-20
2022/01/07 08:39:12;;;;;;;4.43;2.53;;;3.00;63.50;;;;;;5095365;28;20049;-20
2022/01/07 08:41:39;;;;;;;6.00;2.83;;;3.20;63.10;;;;;;5094047;28;20024;-20
2022/01/07 08:44:07;;;;;;;5.47;2.60;;;3.40;61.40;;;;;;5095033;28;20078;-20
2022/01/07 08:46:33;;;;;;;4.80;2.58;;;3.50;61.50;;;;;;5095036;28;20036;-20
2022/01/07 08:48:59;;;;;;;4.47;2.47;;;3.70;60.30;;;;;;5095009;28;20468;-20
2022/01/07 08:51:26;;;;;;;4.75;2.70;;;3.90;60.20;;;;;;5095389;28;20058;-20
2022/01/07 08:53:53;;;;;;;4.13;2.60;;;4.00;60.90;;;;;;5093474;28;20050;-21
2022/01/07 08:56:23;;;;;;;4.55;2.53;;;4.10;61.10;;;;;;5094737;28;20168;-20
2022/01/07 08:58:51;;;;;;;6.75;3.13;;;4.30;61.10;;;;;;5095237;28;20024;-21
2022/01/07 09:01:19;;;;;;;6.30;3.30;;;4.50;60.20;;;;;;5095117;28;20028;-21
2022/01/07 09:03:45;;;;;;;4.43;2.67;;;4.60;59.30;;;;;;5094914;28;20028;-20
2022/01/07 09:06:11;;;;;;;4.70;2.65;;;4.80;59.80;;;;;;5093659;28;20466;-22
2022/01/07 09:08:37;;;;;;;6.45;3.38;;;4.90;59.60;;;;;;5094825;28;20024;-22
2022/01/07 09:11:02;;;;;;;5.22;2.80;;;5.10;59.10;;;;;;5094671;28;20028;-22
2022/01/07 09:13:28;;;;;;;8.80;3.97;;;5.30;58.00;;;;;;5095072;28;20095;-22
2022/01/07 09:15:55;;;;;;;6.75;3.50;;;5.50;58.10;;;;;;5094424;28;20369;-24
2022/01/07 09:18:21;;;;;;;6.38;3.78;;;5.70;57.50;;;;;;5093968;28;20036;-23
2022/01/07 09:20:48;;;;;;;6.95;3.45;;;5.90;56.70;;;;;;5094379;28;20560;-23
2022/01/07 09:23:15;;;;;;;7.35;4.18;;;6.00;56.90;;;;;;5094041;28;20075;-24
2022/01/07 09:25:42;;;;;;;5.53;3.30;;;6.20;56.80;;;;;;5094536;28;20043;-24
2022/01/07 09:28:09;;;;;;;6.50;3.22;;;6.40;56.20;;;;;;5094431;28;20036;-25
2022/01/07 09:30:36;;;;;;;6.53;3.35;;;6.60;56.40;;;;;;5094491;28;20498;-23
2022/01/07 09:33:03;;;;;;;3.72;2.72;;;6.80;54.10;;;;;;5094414;28;20028;-25
2022/01/07 09:35:29;;;;;;;4.47;2.90;;;6.90;54.40;;;;;;5094304;28;20027;-24
2022/01/07 09:37:56;;;;;;;3.53;2.40;;;7.10;53.80;;;;;;5094368;28;20024;-24
2022/01/07 09:40:22;;;;;;;4.00;2.28;;;7.30;54.30;;;;;;5094045;28;20039;-25
2022/01/07 09:43:04;;;;;;;3.63;2.05;;;7.40;51.70;;;;;;5094117;28;20024;-24
2022/01/07 09:45:32;;;;;;;3.42;2.42;;;7.50;51.50;;;;;;5094061;28;20066;-24
2022/01/07 09:48:01;;;;;;;3.22;2.35;;;7.60;51.40;;;;;;5093903;28;20035;-24
2022/01/07 09:50:28;;;;;;;5.80;2.63;;;7.70;50.70;;;;;;5093737;28;20113;-24
2022/01/07 09:52:54;;;;;;;5.50;2.65;;;7.90;51.70;;;;;;5092548;28;20020;-25
2022/01/07 09:55:21;;;;;;;2.55;2.00;;;8.00;51.60;;;;;;5094146;28;20024;-25
2022/01/07 09:57:50;;;;;;;4.60;2.47;;;8.10;51.40;;;;;;5094106;28;20020;-25
2022/01/07 10:00:16;;;;;;;3.67;2.20;;;8.20;52.10;;;;;;5093381;28;20028;-27
2022/01/07 10:03:11;;;;;;;2.88;2.15;;;8.40;51.10;;;;;;5093654;28;20110;-24
2022/01/07 10:05:43;;;;;;;5.32;2.53;;;8.50;50.80;;;;;;5093374;28;20084;-25
2022/01/07 10:08:26;;;;;;;4.57;2.70;;;8.60;49.80;;;;;;5093578;28;20039;-25
2022/01/07 10:11:14;;;;;;;4.90;2.50;;;8.80;48.70;;;;;;5094623;28;20032;-25
2022/01/07 10:13:45;;;;;;;4.07;2.50;;;8.90;47.80;;;;;;5094615;28;20072;-25
2022/01/07 10:16:20;;;;;;;6.35;2.55;;;9.10;49.10;;;;;;5093527;28;20496;-26
2022/01/07 10:18:48;;;;;;;3.83;2.40;;;9.10;49.00;;;;;;5093466;28;20020;-25
2022/01/07 10:21:16;;;;;;;4.72;2.80;;;9.30;50.50;;;;;;5093817;28;20027;-26
2022/01/07 10:23:44;;;;;;;5.38;2.42;;;9.40;49.10;;;;;;5093154;28;20166;-26
2022/01/07 10:26:19;;;;;;;3.78;2.47;;;9.40;49.30;;;;;;5093719;28;20059;-25
2022/01/07 10:28:49;;;;;;;2.78;2.20;;;9.60;49.30;;;;;;5094316;28;20069;-25
2022/01/07 10:31:23;;;;;;;2.95;2.05;;;9.80;47.40;;;;;;5093269;28;20034;-26
2022/01/07 10:33:50;;;;;;;2.97;2.10;;;9.90;49.00;;;;;;5093291;28;20034;-25
2022/01/07 10:36:22;;;;;;;4.75;1.98;;;10.10;47.70;;;;;;5093408;28;20047;-26
2022/01/07 10:38:57;;;;;;;3.08;1.90;;;10.20;47.00;;;;;;5093779;28;20023;-26
2022/01/07 10:41:23;;;;;;;1.70;1.60;;;10.30;47.40;;;;;;5093602;28;20034;-25
2022/01/07 10:43:52;;;;;;;2.50;1.90;;;10.40;47.90;;;;;;5091840;28;20103;-26
2022/01/07 10:46:27;;;;;;;3.67;2.10;;;10.50;47.90;;;;;;5093300;28;20024;-25
2022/01/07 10:49:01;;;;;;;2.78;1.80;;;10.60;49.20;;;;;;5093090;28;20035;-25
2022/01/07 10:51:32;;;;;;;3.65;1.80;;;10.60;46.90;;;;;;5093117;28;20024;-25
2022/01/07 10:54:00;;;;;;;2.78;1.88;;;10.70;47.20;;;;;;5093169;28;20103;-25
2022/01/07 10:56:34;;;;;;;3.00;1.70;;;10.80;46.70;;;;;;5092859;28;20490;-25
2022/01/07 10:59:07;;;;;;;3.22;1.83;;;10.90;47.00;;;;;;5093057;28;20042;-25
2022/01/07 11:01:39;;;;;;;3.05;1.88;;;11.10;46.30;;;;;;5093209;28;20024;-25
2022/01/07 11:04:08;;;;;;;2.15;1.77;;;11.30;46.20;;;;;;5093107;28;20074;-25
2022/01/07 11:06:35;;;;;;;2.50;1.80;;;11.50;45.80;;;;;;5093131;28;20024;-24
2022/01/07 11:09:04;;;;;;;2.15;1.63;;;11.80;45.20;;;;;;5093210;28;20060;-25
2022/01/07 11:11:30;;;;;;;1.52;1.42;;;12.00;45.40;;;;;;5092955;28;20039;-25
2022/01/07 11:14:24;;;;;;;5.95;1.95;;;12.20;45.50;;;;;;5093191;28;20027;-26
2022/01/07 11:16:52;;;;;;;2.50;1.98;;;12.40;42.00;;;;;;5088788;28;20036;-25
2022/01/07 11:19:26;;;;;;;3.13;1.88;;;12.40;43.80;;;;;;5097043;28;20049;-25
2022/01/07 11:21:54;;;;;;;4.00;1.63;;;12.60;44.30;;;;;;5098030;28;20024;-25
2022/01/07 11:24:35;;;;;;;3.72;1.90;;;12.80;44.70;;;;;;5096384;28;20506;-26
2022/01/07 11:27:04;;;;;;;2.17;1.70;;;13.10;40.70;;;;;;5095367;28;20028;-25
2022/01/07 11:29:30;;;;;;;1.90;1.42;;;13.40;43.40;;;;;;5096726;28;20035;-25
2022/01/07 11:32:34;;;;;;;4.00;2.20;;;13.70;42.70;;;;;;5096579;28;20035;-25
2022/01/07 11:35:18;;;;;;;3.33;1.90;;;14.10;40.10;;;;;;5097314;28;20059;-26
2022/01/07 11:37:47;;;;;;;2.05;1.33;;;14.50;36.80;;;;;;5096866;28;20047;-26
2022/01/07 11:40:31;;;;;;;4.30;2.40;;;14.70;38.60;;;;;;5096214;28;20384;-27
2022/01/07 11:42:59;;;;;;;;;;;15.00;35.80;;;;;;5097412;28;20020;-25
2022/01/07 11:45:39;;;;;;;3.38;1.67;;;15.20;31.30;;;;;;5096308;28;19919;-25
2022/01/07 11:48:23;;;;;;;3.55;1.48;;;15.40;36.80;;;;;;5096343;28;20025;-25
2022/01/07 11:50:56;;;;;;;1.35;1.25;;;15.80;36.90;;;;;;5096897;28;20085;-25
2022/01/07 11:53:40;;;;;;;2.30;1.48;;;16.00;37.50;;;;;;5096190;28;20032;-25
2022/01/07 11:56:24;;;;;;;1.85;1.50;;;16.30;37.60;;;;;;5096528;28;20036;-25
2022/01/07 11:58:55;;;;;;;1.33;1.20;;;16.50;36.40;;;;;;5096470;28;20024;-25
2022/01/07 12:01:37;;;;;;;1.95;1.35;;;16.70;36.90;;;;;;5096143;28;20034;-25
2022/01/07 12:04:27;;;;;;;0.90;0.90;;;16.90;37.30;;;;;;5095808;28;20133;-25
2022/01/07 12:07:02;;;;;;;2.88;1.55;;;17.30;33.10;;;;;;5090966;28;20043;-25
2022/01/07 12:09:34;;;;;;;2.97;1.77;;;17.60;36.40;;;;;;5095951;28;20059;-25
2022/01/07 12:12:06;;;;;;;3.03;1.60;;;17.90;35.10;;;;;;5096108;28;20016;-24
2022/01/07 12:14:40;;;;;;;1.70;1.27;;;18.10;35.50;;;;;;5095939;28;20020;-25
2022/01/07 12:17:13;;;;;;;1.48;1.27;;;18.30;35.50;;;;;;5095797;28;20492;-26
2022/01/07 12:19:49;;;;;;;1.55;1.33;;;18.50;35.90;;;;;;5095679;28;20110;-24
2022/01/07 12:22:16;;;;;;;2.10;1.17;;;18.70;34.50;;;;;;5096042;28;20024;-24
2022/01/07 12:24:43;;;;;;;1.55;1.23;;;18.90;34.60;;;;;;5095334;28;20510;-25
2022/01/07 12:27:24;;;;;;;2.28;1.45;;;19.10;34.00;;;;;;5094312;28;20145;-25
2022/01/07 12:29:53;;;;;;;3.08;1.90;;;19.20;33.30;;;;;;5094847;28;20476;-25
2022/01/07 12:32:27;;;;;;;1.58;1.35;;;19.40;33.50;;;;;;5095606;28;20028;-25
2022/01/07 12:34:53;;;;;;;1.00;0.88;;;19.40;32.90;;;;;;5095317;28;20031;-25
2022/01/07 12:37:23;;;;;;;1.20;1.10;;;19.50;32.50;;;;;;5095680;28;20103;-25
2022/01/07 12:39:58;;;;;;;2.17;1.27;;;19.50;33.00;;;;;;5095642;28;20032;-25
2022/01/07 12:42:26;;;;;;;2.00;1.25;;;19.30;32.20;;;;;;5095124;28;20102;-26
2022/01/07 12:44:57;;;;;;;1.52;1.30;;;19.20;32.50;;;;;;5095394;28;20104;-25
2022/01/07 12:47:26;;;;;;;1.10;1.00;;;18.90;32.50;;;;;;5095642;28;20097;-27
2022/01/07 12:50:04;;;;;;;2.40;1.40;;;18.50;33.30;;;;;;5095377;28;20074;-25
2022/01/07 12:52:32;;;;;;;2.08;1.35;;;17.90;31.30;;;;;;5095077;28;20495;-24
2022/01/07 12:55:17;;;;;;;1.35;1.02;;;17.40;33.50;;;;;;5094944;28;20016;-24
2022/01/07 12:57:51;;;;;;;3.13;1.33;;;17.10;33.40;;;;;;5094978;28;20387;-25
2022/01/07 13:00:37;;;;;;;1.25;1.15;;;16.70;34.40;;;;;;5094691;28;20032;-25
2022/01/07 13:03:06;;;;;;;1.95;1.17;;;16.50;31.90;;;;;;5094636;28;20039;-25
2022/01/07 13:05:37;;;;;;;2.00;1.05;;;16.30;34.70;;;;;;5094664;28;20115;-25